sensor_id;sensor_type;location;lat;lon;timestamp;temperature;humidity
2889;DHT22;1453;42.708;23.282;2023-02-28T00:01:26;6.90;99.90
2889;DHT22;1453;42.708;23.282;2023-02-28T00:03:52;7.00;99.90
2889;DHT22;1453;42.708;23.282;2023-02-28T00:06:18;7.20;99.90
2889;DHT22;1453;42.708;23.282;2023-02-28T00:08:44;7.30;99.90
2889;DHT22;1453;42.708;23.282;2023-02-28T00:11:12;7.30;99.90
2889;DHT22;1453;42.708;23.282;2023-02-28T00:13:42;7.10;99.90
2889;DHT22;1453;42.708;23.282;2023-02-28T00:16:21;7.20;99.90
2889;DHT22;1453;42.708;23.282;2023-02-28T00:18:48;7.30;99.90
2889;DHT22;1453;42.708;23.282;2023-02-28T00:21:16;7.30;99.90
2889;DHT22;1453;42.708;23.282;2023-02-28T00:23:42;7.20;99.90
2889;DHT22;1453;42.708;23.282;2023-02-28T00:26:09;7.30;99.90
2889;DHT22;1453;42.708;23.282;2023-02-28T00:28:35;7.30;99.90
2889;DHT22;1453;42.708;23.282;2023-02-28T00:31:01;7.20;99.90
2889;DHT22;1453;42.708;23.282;2023-02-28T00:33:27;7.30;99.90
2889;DHT22;1453;42.708;23.282;2023-02-28T00:36:04;7.10;99.90
2889;DHT22;1453;42.708;23.282;2023-02-28T00:38:31;7.10;99.90
2889;DHT22;1453;42.708;23.282;2023-02-28T00:40:57;7.10;99.90
2889;DHT22;1453;42.708;23.282;2023-02-28T00:43:24;6.90;99.90
2889;DHT22;1453;42.708;23.282;2023-02-28T00:45:49;6.90;99.90
2889;DHT22;1453;42.708;23.282;2023-02-28T00:48:15;6.80;99.90
2889;DHT22;1453;42.708;23.282;2023-02-28T00:50:41;6.80;99.90
2889;DHT22;1453;42.708;23.282;2023-02-28T00:53:07;6.80;99.90
2889;DHT22;1453;42.708;23.282;2023-02-28T00:55:32;6.80;99.90
2889;DHT22;1453;42.708;23.282;2023-02-28T00:57:58;6.80;99.90
2889;DHT22;1453;42.708;23.282;2023-02-28T01:00:24;6.60;99.90
2889;DHT22;1453;42.708;23.282;2023-02-28T01:02:50;6.50;99.90
2889;DHT22;1453;42.708;23.282;2023-02-28T01:05:15;6.30;99.90
2889;DHT22;1453;42.708;23.282;2023-02-28T01:07:41;6.30;99.90
2889;DHT22;1453;42.708;23.282;2023-02-28T01:10:08;6.10;99.90
2889;DHT22;1453;42.708;23.282;2023-02-28T01:12:34;5.50;99.90
2889;DHT22;1453;42.708;23.282;2023-02-28T01:15:00;5.60;99.90
2889;DHT22;1453;42.708;23.282;2023-02-28T01:17:26;5.60;99.90
2889;DHT22;1453;42.708;23.282;2023-02-28T01:19:54;5.60;99.90
2889;DHT22;1453;42.708;23.282;2023-02-28T01:22:21;5.50;99.90
2889;DHT22;1453;42.708;23.282;2023-02-28T01:24:47;5.60;99.90
2889;DHT22;1453;42.708;23.282;2023-02-28T01:27:13;5.70;99.90
2889;DHT22;1453;42.708;23.282;2023-02-28T01:29:39;5.70;99.90
2889;DHT22;1453;42.708;23.282;2023-02-28T01:32:04;5.50;99.90
2889;DHT22;1453;42.708;23.282;2023-02-28T01:34:30;5.60;99.90
2889;DHT22;1453;42.708;23.282;2023-02-28T01:36:56;5.60;99.90
2889;DHT22;1453;42.708;23.282;2023-02-28T01:39:24;5.60;99.90
2889;DHT22;1453;42.708;23.282;2023-02-28T01:41:51;5.80;99.90
2889;DHT22;1453;42.708;23.282;2023-02-28T01:47:20;5.70;99.90
2889;DHT22;1453;42.708;23.282;2023-02-28T01:49:47;5.70;99.90
2889;DHT22;1453;42.708;23.282;2023-02-28T01:52:14;5.80;99.90
2889;DHT22;1453;42.708;23.282;2023-02-28T01:54:46;5.90;99.90
2889;DHT22;1453;42.708;23.282;2023-02-28T01:57:17;5.80;99.90
2889;DHT22;1453;42.708;23.282;2023-02-28T01:59:54;5.70;99.90
2889;DHT22;1453;42.708;23.282;2023-02-28T02:02:24;5.70;99.90
2889;DHT22;1453;42.708;23.282;2023-02-28T02:05:00;5.70;99.90
2889;DHT22;1453;42.708;23.282;2023-02-28T02:07:35;5.40;99.90
2889;DHT22;1453;42.708;23.282;2023-02-28T02:10:10;5.50;99.90
2889;DHT22;1453;42.708;23.282;2023-02-28T02:15:47;5.70;99.90
2889;DHT22;1453;42.708;23.282;2023-02-28T02:40:57;5.60;99.90
2889;DHT22;1453;42.708;23.282;2023-02-28T02:43:34;5.60;99.90
2889;DHT22;1453;42.708;23.282;2023-02-28T02:46:07;5.70;99.90
2889;DHT22;1453;42.708;23.282;2023-02-28T02:48:39;5.60;99.90
2889;DHT22;1453;42.708;23.282;2023-02-28T02:51:17;5.60;99.90
2889;DHT22;1453;42.708;23.282;2023-02-28T02:56:36;5.70;99.90
2889;DHT22;1453;42.708;23.282;2023-02-28T02:59:08;5.80;99.90
2889;DHT22;1453;42.708;23.282;2023-02-28T03:01:36;5.90;99.90
2889;DHT22;1453;42.708;23.282;2023-02-28T03:04:09;5.90;99.90
2889;DHT22;1453;42.708;23.282;2023-02-28T03:06:38;5.90;99.90
2889;DHT22;1453;42.708;23.282;2023-02-28T03:09:04;5.80;99.90
2889;DHT22;1453;42.708;23.282;2023-02-28T03:11:30;5.90;99.90
2889;DHT22;1453;42.708;23.282;2023-02-28T03:19:41;5.80;99.90
2889;DHT22;1453;42.708;23.282;2023-02-28T03:26:19;5.90;99.90
2889;DHT22;1453;42.708;23.282;2023-02-28T03:28:31;6.00;99.90
2889;DHT22;1453;42.708;23.282;2023-02-28T03:31:32;6.20;99.90
2889;DHT22;1453;42.708;23.282;2023-02-28T03:34:03;6.20;99.90
2889;DHT22;1453;42.708;23.282;2023-02-28T03:36:41;6.10;99.90
2889;DHT22;1453;42.708;23.282;2023-02-28T03:39:17;6.10;99.90
2889;DHT22;1453;42.708;23.282;2023-02-28T03:42:12;6.30;99.90
2889;DHT22;1453;42.708;23.282;2023-02-28T03:45:02;6.30;99.90
2889;DHT22;1453;42.708;23.282;2023-02-28T03:47:42;6.40;99.90
2889;DHT22;1453;42.708;23.282;2023-02-28T03:50:23;6.40;99.90
2889;DHT22;1453;42.708;23.282;2023-02-28T03:52:55;6.30;99.90
2889;DHT22;1453;42.708;23.282;2023-02-28T03:55:28;6.30;99.90
2889;DHT22;1453;42.708;23.282;2023-02-28T03:58:20;6.40;99.90
2889;DHT22;1453;42.708;23.282;2023-02-28T04:00:59;6.30;99.90
2889;DHT22;1453;42.708;23.282;2023-02-28T04:03:37;6.40;99.90
2889;DHT22;1453;42.708;23.282;2023-02-28T04:06:12;6.30;99.90
2889;DHT22;1453;42.708;23.282;2023-02-28T04:08:41;6.30;99.90
2889;DHT22;1453;42.708;23.282;2023-02-28T04:11:18;6.30;99.90
2889;DHT22;1453;42.708;23.282;2023-02-28T04:13:47;6.40;99.90
2889;DHT22;1453;42.708;23.282;2023-02-28T04:16:13;6.40;99.90
2889;DHT22;1453;42.708;23.282;2023-02-28T04:18:39;6.50;99.90
2889;DHT22;1453;42.708;23.282;2023-02-28T04:21:06;6.40;99.90
2889;DHT22;1453;42.708;23.282;2023-02-28T04:23:32;6.40;99.90
2889;DHT22;1453;42.708;23.282;2023-02-28T04:25:59;6.50;99.90
2889;DHT22;1453;42.708;23.282;2023-02-28T04:28:25;6.40;99.90
2889;DHT22;1453;42.708;23.282;2023-02-28T04:31:09;6.30;99.90
2889;DHT22;1453;42.708;23.282;2023-02-28T04:33:36;6.40;99.90
2889;DHT22;1453;42.708;23.282;2023-02-28T04:36:06;6.30;99.90
2889;DHT22;1453;42.708;23.282;2023-02-28T04:38:38;6.30;99.90
2889;DHT22;1453;42.708;23.282;2023-02-28T04:41:05;6.30;99.90
2889;DHT22;1453;42.708;23.282;2023-02-28T04:43:31;6.20;99.90
2889;DHT22;1453;42.708;23.282;2023-02-28T04:46:00;6.20;99.90
2889;DHT22;1453;42.708;23.282;2023-02-28T04:48:32;6.20;99.90
2889;DHT22;1453;42.708;23.282;2023-02-28T04:51:07;6.30;99.90
2889;DHT22;1453;42.708;23.282;2023-02-28T04:53:35;6.30;99.90
2889;DHT22;1453;42.708;23.282;2023-02-28T04:56:02;6.30;99.90
2889;DHT22;1453;42.708;23.282;2023-02-28T04:58:28;6.30;99.90
2889;DHT22;1453;42.708;23.282;2023-02-28T05:01:05;6.30;99.90
2889;DHT22;1453;42.708;23.282;2023-02-28T05:03:39;6.20;99.90
2889;DHT22;1453;42.708;23.282;2023-02-28T05:06:08;6.20;99.90
2889;DHT22;1453;42.708;23.282;2023-02-28T05:08:35;6.20;99.90
2889;DHT22;1453;42.708;23.282;2023-02-28T05:11:01;6.20;99.90
2889;DHT22;1453;42.708;23.282;2023-02-28T05:13:28;6.30;99.90
2889;DHT22;1453;42.708;23.282;2023-02-28T05:15:54;6.30;99.90
2889;DHT22;1453;42.708;23.282;2023-02-28T05:18:20;6.30;99.90
2889;DHT22;1453;42.708;23.282;2023-02-28T05:20:46;6.10;99.90
2889;DHT22;1453;42.708;23.282;2023-02-28T05:23:13;6.00;99.90
2889;DHT22;1453;42.708;23.282;2023-02-28T05:25:40;6.00;99.90
2889;DHT22;1453;42.708;23.282;2023-02-28T05:28:06;6.00;99.90
2889;DHT22;1453;42.708;23.282;2023-02-28T05:30:33;5.90;99.90
2889;DHT22;1453;42.708;23.282;2023-02-28T05:32:59;6.00;99.90
2889;DHT22;1453;42.708;23.282;2023-02-28T05:35:25;6.20;99.90
2889;DHT22;1453;42.708;23.282;2023-02-28T05:37:52;6.30;99.90
2889;DHT22;1453;42.708;23.282;2023-02-28T05:40:18;6.30;99.90
2889;DHT22;1453;42.708;23.282;2023-02-28T05:42:46;6.20;99.90
2889;DHT22;1453;42.708;23.282;2023-02-28T05:45:12;6.10;99.90
2889;DHT22;1453;42.708;23.282;2023-02-28T05:47:38;6.10;99.90
2889;DHT22;1453;42.708;23.282;2023-02-28T05:50:05;6.00;99.90
2889;DHT22;1453;42.708;23.282;2023-02-28T05:52:31;6.00;99.90
2889;DHT22;1453;42.708;23.282;2023-02-28T05:54:58;6.10;99.90
2889;DHT22;1453;42.708;23.282;2023-02-28T05:57:25;6.20;99.90
2889;DHT22;1453;42.708;23.282;2023-02-28T05:59:51;6.20;99.90
2889;DHT22;1453;42.708;23.282;2023-02-28T06:02:17;6.40;99.90
2889;DHT22;1453;42.708;23.282;2023-02-28T06:04:44;6.30;99.90
2889;DHT22;1453;42.708;23.282;2023-02-28T06:07:10;6.40;99.90
2889;DHT22;1453;42.708;23.282;2023-02-28T06:09:37;6.40;99.90
2889;DHT22;1453;42.708;23.282;2023-02-28T06:12:05;6.40;99.90
2889;DHT22;1453;42.708;23.282;2023-02-28T06:14:33;6.40;99.90
2889;DHT22;1453;42.708;23.282;2023-02-28T06:17:00;6.40;99.90
2889;DHT22;1453;42.708;23.282;2023-02-28T06:19:26;6.60;99.90
2889;DHT22;1453;42.708;23.282;2023-02-28T06:21:53;6.70;99.90
2889;DHT22;1453;42.708;23.282;2023-02-28T06:24:20;6.60;99.90
2889;DHT22;1453;42.708;23.282;2023-02-28T06:26:48;6.50;99.90
2889;DHT22;1453;42.708;23.282;2023-02-28T06:29:14;6.50;99.90
2889;DHT22;1453;42.708;23.282;2023-02-28T06:31:47;6.60;99.90
2889;DHT22;1453;42.708;23.282;2023-02-28T06:34:13;6.60;99.90
2889;DHT22;1453;42.708;23.282;2023-02-28T06:36:40;6.50;99.90
2889;DHT22;1453;42.708;23.282;2023-02-28T06:39:08;6.50;99.90
2889;DHT22;1453;42.708;23.282;2023-02-28T06:41:34;6.70;99.90
2889;DHT22;1453;42.708;23.282;2023-02-28T06:44:08;6.70;99.90
2889;DHT22;1453;42.708;23.282;2023-02-28T06:46:44;6.80;99.90
2889;DHT22;1453;42.708;23.282;2023-02-28T06:49:11;6.80;99.90
2889;DHT22;1453;42.708;23.282;2023-02-28T06:51:41;6.90;99.90
2889;DHT22;1453;42.708;23.282;2023-02-28T06:54:10;6.90;99.90
2889;DHT22;1453;42.708;23.282;2023-02-28T06:56:37;6.80;99.90
2889;DHT22;1453;42.708;23.282;2023-02-28T06:59:03;7.00;99.90
2889;DHT22;1453;42.708;23.282;2023-02-28T07:01:30;7.20;99.90
2889;DHT22;1453;42.708;23.282;2023-02-28T07:03:57;7.20;99.90
2889;DHT22;1453;42.708;23.282;2023-02-28T07:06:24;7.30;99.90
2889;DHT22;1453;42.708;23.282;2023-02-28T07:08:51;7.30;99.90
2889;DHT22;1453;42.708;23.282;2023-02-28T07:11:22;7.40;99.90
2889;DHT22;1453;42.708;23.282;2023-02-28T07:13:54;7.40;99.90
2889;DHT22;1453;42.708;23.282;2023-02-28T07:16:21;7.40;99.90
2889;DHT22;1453;42.708;23.282;2023-02-28T07:18:48;7.40;99.90
2889;DHT22;1453;42.708;23.282;2023-02-28T07:21:15;7.40;99.90
2889;DHT22;1453;42.708;23.282;2023-02-28T07:23:41;7.30;99.90
2889;DHT22;1453;42.708;23.282;2023-02-28T07:26:12;7.20;99.90
2889;DHT22;1453;42.708;23.282;2023-02-28T07:28:41;7.30;99.90
2889;DHT22;1453;42.708;23.282;2023-02-28T07:31:08;7.30;99.90
2889;DHT22;1453;42.708;23.282;2023-02-28T07:33:35;7.20;99.90
2889;DHT22;1453;42.708;23.282;2023-02-28T07:36:03;7.10;99.90
2889;DHT22;1453;42.708;23.282;2023-02-28T07:38:33;7.20;99.90
2889;DHT22;1453;42.708;23.282;2023-02-28T07:40:59;7.20;99.90
2889;DHT22;1453;42.708;23.282;2023-02-28T07:43:25;7.30;99.90
2889;DHT22;1453;42.708;23.282;2023-02-28T07:45:51;7.40;99.90
2889;DHT22;1453;42.708;23.282;2023-02-28T07:48:17;7.50;99.90
2889;DHT22;1453;42.708;23.282;2023-02-28T07:50:42;7.50;99.90
2889;DHT22;1453;42.708;23.282;2023-02-28T07:53:08;7.60;99.90
2889;DHT22;1453;42.708;23.282;2023-02-28T07:55:34;7.70;99.90
2889;DHT22;1453;42.708;23.282;2023-02-28T07:58:00;7.80;99.90
2889;DHT22;1453;42.708;23.282;2023-02-28T08:00:26;7.70;99.90
2889;DHT22;1453;42.708;23.282;2023-02-28T08:02:52;7.60;99.90
2889;DHT22;1453;42.708;23.282;2023-02-28T08:05:17;7.80;99.90
2889;DHT22;1453;42.708;23.282;2023-02-28T08:07:43;7.90;99.90
2889;DHT22;1453;42.708;23.282;2023-02-28T08:10:10;7.90;99.90
2889;DHT22;1453;42.708;23.282;2023-02-28T08:12:36;7.70;99.90
2889;DHT22;1453;42.708;23.282;2023-02-28T08:15:01;7.80;99.90
2889;DHT22;1453;42.708;23.282;2023-02-28T08:17:27;8.20;99.90
2889;DHT22;1453;42.708;23.282;2023-02-28T08:19:53;8.10;99.90
2889;DHT22;1453;42.708;23.282;2023-02-28T08:22:19;8.20;99.90
2889;DHT22;1453;42.708;23.282;2023-02-28T08:24:45;8.30;99.90
2889;DHT22;1453;42.708;23.282;2023-02-28T08:27:11;8.30;99.90
2889;DHT22;1453;42.708;23.282;2023-02-28T08:29:37;8.30;99.90
2889;DHT22;1453;42.708;23.282;2023-02-28T08:32:04;8.40;99.90
2889;DHT22;1453;42.708;23.282;2023-02-28T08:34:31;8.50;99.90
2889;DHT22;1453;42.708;23.282;2023-02-28T08:36:57;8.40;99.90
2889;DHT22;1453;42.708;23.282;2023-02-28T08:39:23;8.40;99.90
2889;DHT22;1453;42.708;23.282;2023-02-28T08:41:49;8.30;99.90
2889;DHT22;1453;42.708;23.282;2023-02-28T08:44:14;8.40;99.90
2889;DHT22;1453;42.708;23.282;2023-02-28T08:46:40;8.30;99.90
2889;DHT22;1453;42.708;23.282;2023-02-28T08:49:06;8.30;99.90
2889;DHT22;1453;42.708;23.282;2023-02-28T08:51:32;8.50;99.90
2889;DHT22;1453;42.708;23.282;2023-02-28T08:53:59;8.30;99.90
2889;DHT22;1453;42.708;23.282;2023-02-28T08:56:27;8.30;99.90
2889;DHT22;1453;42.708;23.282;2023-02-28T08:58:55;8.30;99.90
2889;DHT22;1453;42.708;23.282;2023-02-28T09:01:27;8.40;99.90
2889;DHT22;1453;42.708;23.282;2023-02-28T09:03:54;8.30;99.90
2889;DHT22;1453;42.708;23.282;2023-02-28T09:06:23;8.30;99.90
2889;DHT22;1453;42.708;23.282;2023-02-28T09:08:50;8.30;99.90
2889;DHT22;1453;42.708;23.282;2023-02-28T09:11:16;8.10;99.90
2889;DHT22;1453;42.708;23.282;2023-02-28T09:13:44;7.90;99.90
2889;DHT22;1453;42.708;23.282;2023-02-28T09:16:12;8.00;99.90
2889;DHT22;1453;42.708;23.282;2023-02-28T09:18:40;8.10;99.90
2889;DHT22;1453;42.708;23.282;2023-02-28T09:21:07;8.10;99.90
2889;DHT22;1453;42.708;23.282;2023-02-28T09:23:34;8.10;99.90
2889;DHT22;1453;42.708;23.282;2023-02-28T09:26:03;8.20;99.90
2889;DHT22;1453;42.708;23.282;2023-02-28T09:28:30;8.20;99.90
2889;DHT22;1453;42.708;23.282;2023-02-28T09:30:56;8.40;99.90
2889;DHT22;1453;42.708;23.282;2023-02-28T09:33:24;8.40;99.90
2889;DHT22;1453;42.708;23.282;2023-02-28T09:35:58;8.50;99.90
2889;DHT22;1453;42.708;23.282;2023-02-28T09:38:26;8.70;99.90
2889;DHT22;1453;42.708;23.282;2023-02-28T09:40:58;9.10;99.90
2889;DHT22;1453;42.708;23.282;2023-02-28T09:43:29;8.90;99.90
2889;DHT22;1453;42.708;23.282;2023-02-28T09:48:52;9.10;99.90
2889;DHT22;1453;42.708;23.282;2023-02-28T09:54:18;9.40;99.90
2889;DHT22;1453;42.708;23.282;2023-02-28T09:56:56;9.60;99.90
2889;DHT22;1453;42.708;23.282;2023-02-28T10:05:13;9.90;99.90
2889;DHT22;1453;42.708;23.282;2023-02-28T10:10:50;10.50;99.90
2889;DHT22;1453;42.708;23.282;2023-02-28T10:13:36;10.70;99.90
2889;DHT22;1453;42.708;23.282;2023-02-28T10:16:48;11.00;99.90
2889;DHT22;1453;42.708;23.282;2023-02-28T10:22:20;10.60;99.90
2889;DHT22;1453;42.708;23.282;2023-02-28T10:24:51;10.60;99.90
2889;DHT22;1453;42.708;23.282;2023-02-28T10:27:28;10.60;99.90
2889;DHT22;1453;42.708;23.282;2023-02-28T10:29:58;10.80;99.90
2889;DHT22;1453;42.708;23.282;2023-02-28T10:32:36;11.00;99.90
2889;DHT22;1453;42.708;23.282;2023-02-28T10:37:40;10.80;99.90
2889;DHT22;1453;42.708;23.282;2023-02-28T10:40:32;10.60;99.90
2889;DHT22;1453;42.708;23.282;2023-02-28T10:43:05;10.80;99.90
2889;DHT22;1453;42.708;23.282;2023-02-28T10:45:38;11.00;99.90
2889;DHT22;1453;42.708;23.282;2023-02-28T10:56:09;12.40;99.90
2889;DHT22;1453;42.708;23.282;2023-02-28T10:59:00;13.10;99.90
2889;DHT22;1453;42.708;23.282;2023-02-28T11:01:45;13.70;99.90
2889;DHT22;1453;42.708;23.282;2023-02-28T11:09:35;13.40;99.90
2889;DHT22;1453;42.708;23.282;2023-02-28T11:12:06;13.30;99.90
2889;DHT22;1453;42.708;23.282;2023-02-28T11:14:40;13.30;99.90
2889;DHT22;1453;42.708;23.282;2023-02-28T11:17:22;13.20;99.90
2889;DHT22;1453;42.708;23.282;2023-02-28T11:19:52;13.20;99.90
2889;DHT22;1453;42.708;23.282;2023-02-28T11:22:24;12.70;99.90
2889;DHT22;1453;42.708;23.282;2023-02-28T11:24:57;12.40;99.90
2889;DHT22;1453;42.708;23.282;2023-02-28T11:30:00;12.00;99.90
2889;DHT22;1453;42.708;23.282;2023-02-28T11:32:30;12.60;99.90
2889;DHT22;1453;42.708;23.282;2023-02-28T11:37:38;13.30;99.90
2889;DHT22;1453;42.708;23.282;2023-02-28T11:43:37;13.50;99.90
2889;DHT22;1453;42.708;23.282;2023-02-28T11:46:32;14.20;99.90
2889;DHT22;1453;42.708;23.282;2023-02-28T11:52:02;13.60;99.90
2889;DHT22;1453;42.708;23.282;2023-02-28T12:03:03;14.70;99.90
2889;DHT22;1453;42.708;23.282;2023-02-28T12:05:53;13.90;99.90
2889;DHT22;1453;42.708;23.282;2023-02-28T12:28:54;13.70;99.90
2889;DHT22;1453;42.708;23.282;2023-02-28T12:31:27;13.60;99.90
2889;DHT22;1453;42.708;23.282;2023-02-28T12:34:00;13.80;99.90
2889;DHT22;1453;42.708;23.282;2023-02-28T12:36:29;13.30;99.90
2889;DHT22;1453;42.708;23.282;2023-02-28T12:39:08;13.00;99.90
2889;DHT22;1453;42.708;23.282;2023-02-28T12:41:46;13.00;99.90
2889;DHT22;1453;42.708;23.282;2023-02-28T12:47:02;12.70;99.90
2889;DHT22;1453;42.708;23.282;2023-02-28T12:52:11;12.10;99.90
2889;DHT22;1453;42.708;23.282;2023-02-28T13:00:13;12.10;99.90
2889;DHT22;1453;42.708;23.282;2023-02-28T13:11:06;12.00;99.90
2889;DHT22;1453;42.708;23.282;2023-02-28T13:13:32;12.10;99.90
2889;DHT22;1453;42.708;23.282;2023-02-28T13:16:04;12.00;99.90
2889;DHT22;1453;42.708;23.282;2023-02-28T13:18:40;11.90;99.90
2889;DHT22;1453;42.708;23.282;2023-02-28T13:21:23;11.80;99.90
2889;DHT22;1453;42.708;23.282;2023-02-28T13:34:31;11.90;99.90
2889;DHT22;1453;42.708;23.282;2023-02-28T13:42:22;11.80;99.90
2889;DHT22;1453;42.708;23.282;2023-02-28T13:47:30;11.80;99.90
2889;DHT22;1453;42.708;23.282;2023-02-28T14:07:24;12.00;99.90
2889;DHT22;1453;42.708;23.282;2023-02-28T14:10:05;11.90;99.90
2889;DHT22;1453;42.708;23.282;2023-02-28T14:18:32;11.60;99.90
2889;DHT22;1453;42.708;23.282;2023-02-28T14:21:14;11.50;99.90
2889;DHT22;1453;42.708;23.282;2023-02-28T14:24:16;11.30;99.90
2889;DHT22;1453;42.708;23.282;2023-02-28T14:29:43;11.10;99.90
2889;DHT22;1453;42.708;23.282;2023-02-28T14:37:42;10.80;99.90
2889;DHT22;1453;42.708;23.282;2023-02-28T14:40:15;10.70;99.90
2889;DHT22;1453;42.708;23.282;2023-02-28T14:42:54;10.60;99.90
2889;DHT22;1453;42.708;23.282;2023-02-28T14:45:22;10.70;99.90
2889;DHT22;1453;42.708;23.282;2023-02-28T14:47:52;10.70;99.90
2889;DHT22;1453;42.708;23.282;2023-02-28T14:50:26;10.70;99.90
2889;DHT22;1453;42.708;23.282;2023-02-28T14:52:54;10.70;99.90
2889;DHT22;1453;42.708;23.282;2023-02-28T14:55:26;10.50;99.90
2889;DHT22;1453;42.708;23.282;2023-02-28T14:57:59;10.40;99.90
2889;DHT22;1453;42.708;23.282;2023-02-28T15:00:33;10.40;99.90
2889;DHT22;1453;42.708;23.282;2023-02-28T15:03:13;10.40;99.90
2889;DHT22;1453;42.708;23.282;2023-02-28T15:06:00;10.40;99.90
2889;DHT22;1453;42.708;23.282;2023-02-28T15:08:29;10.40;99.90
2889;DHT22;1453;42.708;23.282;2023-02-28T15:11:03;10.60;99.90
2889;DHT22;1453;42.708;23.282;2023-02-28T15:13:38;10.60;99.90
2889;DHT22;1453;42.708;23.282;2023-02-28T15:16:16;10.40;99.90
2889;DHT22;1453;42.708;23.282;2023-02-28T15:18:47;10.50;99.90
2889;DHT22;1453;42.708;23.282;2023-02-28T15:21:19;10.40;99.90
2889;DHT22;1453;42.708;23.282;2023-02-28T15:24:00;10.30;99.90
2889;DHT22;1453;42.708;23.282;2023-02-28T15:26:39;10.20;99.90
2889;DHT22;1453;42.708;23.282;2023-02-28T15:29:11;10.10;99.90
2889;DHT22;1453;42.708;23.282;2023-02-28T15:31:44;10.10;99.90
2889;DHT22;1453;42.708;23.282;2023-02-28T15:34:20;10.10;99.90
2889;DHT22;1453;42.708;23.282;2023-02-28T15:36:48;9.90;99.90
2889;DHT22;1453;42.708;23.282;2023-02-28T15:39:41;9.60;99.90
2889;DHT22;1453;42.708;23.282;2023-02-28T15:42:12;9.70;99.90
2889;DHT22;1453;42.708;23.282;2023-02-28T15:44:42;9.80;99.90
2889;DHT22;1453;42.708;23.282;2023-02-28T15:47:20;9.70;99.90
2889;DHT22;1453;42.708;23.282;2023-02-28T15:49:55;9.60;99.90
2889;DHT22;1453;42.708;23.282;2023-02-28T15:52:40;9.70;99.90
2889;DHT22;1453;42.708;23.282;2023-02-28T15:55:19;9.70;99.90
2889;DHT22;1453;42.708;23.282;2023-02-28T15:57:49;9.50;99.90
2889;DHT22;1453;42.708;23.282;2023-02-28T16:00:21;9.40;99.90
2889;DHT22;1453;42.708;23.282;2023-02-28T16:02:48;9.40;99.90
2889;DHT22;1453;42.708;23.282;2023-02-28T16:05:28;9.40;99.90
2889;DHT22;1453;42.708;23.282;2023-02-28T16:08:14;9.40;99.90
2889;DHT22;1453;42.708;23.282;2023-02-28T16:10:40;9.50;99.90
2889;DHT22;1453;42.708;23.282;2023-02-28T16:13:08;9.40;99.90
2889;DHT22;1453;42.708;23.282;2023-02-28T16:15:41;9.10;99.90
2889;DHT22;1453;42.708;23.282;2023-02-28T16:18:11;8.80;99.90
2889;DHT22;1453;42.708;23.282;2023-02-28T16:20:37;8.90;99.90
2889;DHT22;1453;42.708;23.282;2023-02-28T16:23:03;8.90;99.90
2889;DHT22;1453;42.708;23.282;2023-02-28T16:25:35;8.70;99.90
2889;DHT22;1453;42.708;23.282;2023-02-28T16:28:03;8.60;99.90
2889;DHT22;1453;42.708;23.282;2023-02-28T16:30:30;8.60;99.90
2889;DHT22;1453;42.708;23.282;2023-02-28T16:32:58;8.60;99.90
2889;DHT22;1453;42.708;23.282;2023-02-28T16:35:25;8.60;99.90
2889;DHT22;1453;42.708;23.282;2023-02-28T16:37:51;8.60;99.90
2889;DHT22;1453;42.708;23.282;2023-02-28T16:40:25;8.50;99.90
2889;DHT22;1453;42.708;23.282;2023-02-28T16:42:53;8.50;99.90
2889;DHT22;1453;42.708;23.282;2023-02-28T16:45:28;8.60;99.90
2889;DHT22;1453;42.708;23.282;2023-02-28T16:47:55;8.30;99.90
2889;DHT22;1453;42.708;23.282;2023-02-28T16:50:31;8.20;99.90
2889;DHT22;1453;42.708;23.282;2023-02-28T16:52:58;8.20;99.90
2889;DHT22;1453;42.708;23.282;2023-02-28T16:55:26;8.20;99.90
2889;DHT22;1453;42.708;23.282;2023-02-28T16:57:55;8.10;99.90
2889;DHT22;1453;42.708;23.282;2023-02-28T17:00:23;8.10;99.90
2889;DHT22;1453;42.708;23.282;2023-02-28T17:02:50;8.00;99.90
2889;DHT22;1453;42.708;23.282;2023-02-28T17:05:16;7.90;99.90
2889;DHT22;1453;42.708;23.282;2023-02-28T17:07:44;8.00;99.90
2889;DHT22;1453;42.708;23.282;2023-02-28T17:10:21;8.00;99.90
2889;DHT22;1453;42.708;23.282;2023-02-28T17:12:48;7.90;99.90
2889;DHT22;1453;42.708;23.282;2023-02-28T17:15:16;7.90;99.90
2889;DHT22;1453;42.708;23.282;2023-02-28T17:17:44;7.80;99.90
2889;DHT22;1453;42.708;23.282;2023-02-28T17:20:13;7.70;99.90
2889;DHT22;1453;42.708;23.282;2023-02-28T17:22:40;7.70;99.90
2889;DHT22;1453;42.708;23.282;2023-02-28T17:25:07;7.60;99.90
2889;DHT22;1453;42.708;23.282;2023-02-28T17:27:34;7.60;99.90
2889;DHT22;1453;42.708;23.282;2023-02-28T17:30:01;7.60;99.90
2889;DHT22;1453;42.708;23.282;2023-02-28T17:32:28;7.50;99.90
2889;DHT22;1453;42.708;23.282;2023-02-28T17:34:54;7.50;99.90
2889;DHT22;1453;42.708;23.282;2023-02-28T17:37:19;7.50;99.90
2889;DHT22;1453;42.708;23.282;2023-02-28T17:39:45;7.50;99.90
2889;DHT22;1453;42.708;23.282;2023-02-28T17:42:11;7.50;99.90
2889;DHT22;1453;42.708;23.282;2023-02-28T17:44:37;7.50;99.90
2889;DHT22;1453;42.708;23.282;2023-02-28T17:47:03;7.40;99.90
2889;DHT22;1453;42.708;23.282;2023-02-28T17:49:29;7.30;99.90
2889;DHT22;1453;42.708;23.282;2023-02-28T17:51:55;7.30;99.90
2889;DHT22;1453;42.708;23.282;2023-02-28T17:54:21;7.10;99.90
2889;DHT22;1453;42.708;23.282;2023-02-28T17:56:46;7.20;99.90
2889;DHT22;1453;42.708;23.282;2023-02-28T17:59:12;7.20;99.90
2889;DHT22;1453;42.708;23.282;2023-02-28T18:01:39;7.10;99.90
2889;DHT22;1453;42.708;23.282;2023-02-28T18:04:04;7.10;99.90
2889;DHT22;1453;42.708;23.282;2023-02-28T18:06:44;7.10;99.90
2889;DHT22;1453;42.708;23.282;2023-02-28T18:09:14;7.10;99.90
2889;DHT22;1453;42.708;23.282;2023-02-28T18:11:40;7.20;99.90
2889;DHT22;1453;42.708;23.282;2023-02-28T18:14:13;7.10;99.90
2889;DHT22;1453;42.708;23.282;2023-02-28T18:16:41;7.10;99.90
2889;DHT22;1453;42.708;23.282;2023-02-28T18:19:07;7.10;99.90
2889;DHT22;1453;42.708;23.282;2023-02-28T18:21:42;7.10;99.90
2889;DHT22;1453;42.708;23.282;2023-02-28T18:24:08;7.10;99.90
2889;DHT22;1453;42.708;23.282;2023-02-28T18:26:35;7.00;99.90
2889;DHT22;1453;42.708;23.282;2023-02-28T18:29:03;7.00;99.90
2889;DHT22;1453;42.708;23.282;2023-02-28T18:31:29;7.10;99.90
2889;DHT22;1453;42.708;23.282;2023-02-28T18:33:57;7.00;99.90
2889;DHT22;1453;42.708;23.282;2023-02-28T18:36:23;7.00;99.90
2889;DHT22;1453;42.708;23.282;2023-02-28T18:38:50;6.90;99.90
2889;DHT22;1453;42.708;23.282;2023-02-28T18:41:17;7.20;99.90
2889;DHT22;1453;42.708;23.282;2023-02-28T18:43:47;7.40;99.90
2889;DHT22;1453;42.708;23.282;2023-02-28T18:46:15;7.50;99.90
2889;DHT22;1453;42.708;23.282;2023-02-28T18:48:42;7.50;99.90
2889;DHT22;1453;42.708;23.282;2023-02-28T18:53:38;7.30;99.90
2889;DHT22;1453;42.708;23.282;2023-02-28T18:56:06;7.10;99.90
2889;DHT22;1453;42.708;23.282;2023-02-28T18:58:33;7.00;99.90
2889;DHT22;1453;42.708;23.282;2023-02-28T19:01:01;7.00;99.90
2889;DHT22;1453;42.708;23.282;2023-02-28T19:03:28;7.00;99.90
2889;DHT22;1453;42.708;23.282;2023-02-28T19:05:55;7.00;99.90
2889;DHT22;1453;42.708;23.282;2023-02-28T19:08:23;7.00;99.90
2889;DHT22;1453;42.708;23.282;2023-02-28T19:10:49;7.00;99.90
2889;DHT22;1453;42.708;23.282;2023-02-28T19:13:15;7.00;99.90
2889;DHT22;1453;42.708;23.282;2023-02-28T19:15:41;7.00;99.90
2889;DHT22;1453;42.708;23.282;2023-02-28T19:18:06;7.00;99.90
2889;DHT22;1453;42.708;23.282;2023-02-28T19:20:32;7.00;99.90
2889;DHT22;1453;42.708;23.282;2023-02-28T19:22:58;7.00;99.90
2889;DHT22;1453;42.708;23.282;2023-02-28T19:25:24;6.90;99.90